createdAt,value
2019-06-26T00:00:47.211Z,22.90
2019-06-26T00:02:13.334Z,19.40
2019-06-26T00:03:38.980Z,23.37
2019-06-26T00:05:05.609Z,16.00
2019-06-26T00:06:31.153Z,25.33
2019-06-26T00:07:57.403Z,26.67
2019-06-26T00:09:22.877Z,16.77
2019-06-26T00:10:49.063Z,21.97
2019-06-26T00:12:14.677Z,27.47
2019-06-26T00:13:40.960Z,22.80
2019-06-26T00:15:06.815Z,20.77
2019-06-26T00:16:32.928Z,23.23
2019-06-26T00:17:58.445Z,20.30
2019-06-26T00:19:24.617Z,20.47
2019-06-26T00:20:50.124Z,24.03
2019-06-26T00:22:16.385Z,24.13
2019-06-26T00:23:41.971Z,24.03
2019-06-26T00:25:08.527Z,24.10
2019-06-26T00:26:34.048Z,30.40
2019-06-26T00:28:00.145Z,20.13
2019-06-26T00:29:25.816Z,27.70
2019-06-26T00:30:51.864Z,27.00
2019-06-26T00:32:17.412Z,21.27
2019-06-26T00:33:43.551Z,23.97
2019-06-26T00:35:09.268Z,25.47
2019-06-26T00:36:35.544Z,32.30
2019-06-26T00:38:01.047Z,34.97
2019-06-26T00:39:27.198Z,24.20
2019-06-26T00:40:52.684Z,20.97
2019-06-26T00:42:18.774Z,30.67
2019-06-26T00:43:44.357Z,34.00
2019-06-26T00:45:10.739Z,28.23
2019-06-26T00:46:36.256Z,30.93
2019-06-26T00:48:02.466Z,23.40
2019-06-26T00:49:28.146Z,34.27
2019-06-26T00:50:54.372Z,29.73
2019-06-26T00:52:20.003Z,22.93
2019-06-26T00:53:46.088Z,30.30
2019-06-26T00:55:11.951Z,23.97
2019-06-26T00:56:38.182Z,29.67
2019-06-26T00:58:03.789Z,25.27
2019-06-26T00:59:30.040Z,27.77
2019-06-26T01:00:55.666Z,33.73
2019-06-26T01:02:21.907Z,30.70
2019-06-26T02:44:06.680Z,32.00
2019-06-26T02:45:32.961Z,22.30
2019-06-26T02:47:17.740Z,19.87
2019-06-26T02:48:26.304Z,22.20
2019-06-26T02:49:51.836Z,28.80
2019-06-26T02:51:18.056Z,21.87
2019-06-26T02:52:43.772Z,25.80
2019-06-26T02:54:09.841Z,23.73
2019-06-26T02:55:35.377Z,27.30
2019-06-26T02:57:01.482Z,21.43
2019-06-26T02:58:27.139Z,18.93
2019-06-26T02:59:53.452Z,18.40
2019-06-26T03:01:19.104Z,33.20
2019-06-26T03:02:45.211Z,21.63
2019-06-26T03:04:10.685Z,23.33
2019-06-26T03:05:36.794Z,21.30
2019-06-26T03:07:02.348Z,20.93
2019-06-26T03:08:28.614Z,21.80
2019-06-26T03:09:54.322Z,22.30
2019-06-26T03:11:20.538Z,30.30
2019-06-26T03:12:46.136Z,26.70
2019-06-26T03:14:12.261Z,26.03
2019-06-26T03:15:37.778Z,22.77
2019-06-26T03:17:03.898Z,33.10
2019-06-26T03:18:29.678Z,25.23
2019-06-26T03:19:55.890Z,20.93
2019-06-26T03:21:21.481Z,22.30
2019-06-26T03:22:47.629Z,23.80
2019-06-26T03:24:13.209Z,27.00
2019-06-26T03:25:39.389Z,18.80
2019-06-26T03:27:04.971Z,37.97
2019-06-26T03:28:31.235Z,23.90
2019-06-26T03:29:56.777Z,21.50
2019-06-26T03:31:23.065Z,22.80
2019-06-26T03:32:48.696Z,23.40
2019-06-26T03:34:14.826Z,26.47
2019-06-26T03:35:40.981Z,30.17
2019-06-26T03:37:07.576Z,25.13
2019-06-26T03:38:33.132Z,22.30
2019-06-26T03:39:59.189Z,21.87
2019-06-26T03:41:24.886Z,18.70
2019-06-26T03:42:50.960Z,26.10
2019-06-26T03:44:16.685Z,23.60
2019-06-26T03:45:42.828Z,29.13
2019-06-26T03:47:08.369Z,44.63
2019-06-26T03:48:34.514Z,28.13
2019-06-26T03:50:00.035Z,29.83
2019-06-26T03:51:26.260Z,23.10
2019-06-26T03:52:51.839Z,25.83
2019-06-26T03:54:18.135Z,22.70
2019-06-26T03:55:43.770Z,25.57
2019-06-26T03:57:09.834Z,20.87
2019-06-26T03:58:35.356Z,32.53
2019-06-26T04:00:01.975Z,25.50
2019-06-26T04:01:27.608Z,23.10
2019-06-26T04:02:53.715Z,30.67
2019-06-26T04:04:19.287Z,21.90
2019-06-26T04:05:45.396Z,29.53
2019-06-26T04:07:10.924Z,25.93
2019-06-26T04:08:37.017Z,32.33
2019-06-26T04:10:02.547Z,29.87
2019-06-26T04:11:28.688Z,32.07
2019-06-26T04:12:54.192Z,24.37
2019-06-26T04:14:20.312Z,24.73
2019-06-26T04:15:45.853Z,29.20
2019-06-26T04:17:12.169Z,23.87
2019-06-26T04:18:37.687Z,23.97
2019-06-26T04:20:03.806Z,26.13
2019-06-26T04:21:29.322Z,28.00
2019-06-26T04:22:55.538Z,23.90
2019-06-26T04:24:21.107Z,25.07
2019-06-26T04:25:47.379Z,28.67
2019-06-26T04:27:12.872Z,24.87
2019-06-26T04:28:38.933Z,32.70
2019-06-26T04:30:05.095Z,28.30
2019-06-26T04:31:31.279Z,27.23
2019-06-26T04:32:56.863Z,25.80
2019-06-26T04:34:22.956Z,28.27
2019-06-26T04:35:48.560Z,25.10
2019-06-26T04:37:14.762Z,26.07
2019-06-26T04:38:40.403Z,31.83
2019-06-26T04:40:07.070Z,26.20
2019-06-26T04:41:32.539Z,22.90
2019-06-26T04:42:58.614Z,29.17
2019-06-26T04:44:24.360Z,38.33
2019-06-26T04:45:58.146Z,25.20
2019-06-26T04:47:17.633Z,21.97
2019-06-26T04:48:43.823Z,32.10
2019-06-26T04:50:10.063Z,26.93
2019-06-26T04:51:36.196Z,37.37
2019-06-26T04:53:01.870Z,25.00
2019-06-26T04:54:28.070Z,34.53
2019-06-26T04:55:53.695Z,25.40
2019-06-26T04:57:19.880Z,26.87
2019-06-26T04:58:45.411Z,27.30
2019-06-26T05:00:13.791Z,29.10
2019-06-26T05:01:39.302Z,27.37
2019-06-26T05:03:05.900Z,27.77
2019-06-26T05:04:31.418Z,28.30
2019-06-26T05:05:57.535Z,27.27
2019-06-26T05:07:23.070Z,37.30
2019-06-26T05:08:49.307Z,31.33
2019-06-26T05:10:16.450Z,28.07
2019-06-26T05:11:42.513Z,26.00
2019-06-26T05:13:08.105Z,19.23
2019-06-26T05:14:34.219Z,24.60
2019-06-26T05:16:13.857Z,25.03
2019-06-26T05:17:28.160Z,20.83
2019-06-26T05:18:53.687Z,26.37
2019-06-26T05:20:20.101Z,18.92
2019-06-26T05:21:45.704Z,23.60
2019-06-26T05:23:11.888Z,23.90
2019-06-26T05:24:37.399Z,33.97
2019-06-26T05:26:03.567Z,25.67
2019-06-26T05:27:29.068Z,15.50
2019-06-26T05:28:55.186Z,23.33
2019-06-26T05:30:21.612Z,25.77
2019-06-26T05:31:47.835Z,21.27
2019-06-26T05:33:13.459Z,24.83
2019-06-26T05:34:39.532Z,22.60
2019-06-26T05:36:05.224Z,28.43
2019-06-26T05:37:31.421Z,26.33
2019-06-26T05:38:56.904Z,28.53
2019-06-26T05:40:23.610Z,31.87
2019-06-26T05:41:49.250Z,18.90
2019-06-26T05:43:15.310Z,28.27
2019-06-26T05:44:40.821Z,23.47
2019-06-26T05:46:07.105Z,27.80
2019-06-26T05:47:32.771Z,26.07
2019-06-26T05:48:58.844Z,32.50
2019-06-26T05:50:25.767Z,26.60
2019-06-26T05:51:52.140Z,22.30
2019-06-26T05:53:17.695Z,29.93
2019-06-26T05:54:43.753Z,34.37
2019-06-26T05:56:09.269Z,37.50
2019-06-26T05:57:35.535Z,29.33
2019-06-26T05:59:01.012Z,28.53
2019-06-26T06:00:27.254Z,25.77
2019-06-26T06:01:52.869Z,40.07
2019-06-26T06:03:19.056Z,24.40
2019-06-26T06:04:44.553Z,24.53
2019-06-26T06:06:10.758Z,24.47
2019-06-26T06:07:36.323Z,28.97
2019-06-26T06:09:02.670Z,32.33
2019-06-26T06:10:28.275Z,22.27
2019-06-26T06:11:54.424Z,28.70
2019-06-26T06:13:19.952Z,19.70
2019-06-26T06:14:46.175Z,32.20
2019-06-26T06:16:11.892Z,24.57
2019-06-26T06:17:38.118Z,26.40
2019-06-26T06:19:03.678Z,21.73
2019-06-26T06:20:38.755Z,26.70
2019-06-26T06:22:04.350Z,24.53
2019-06-26T06:23:30.462Z,28.60
2019-06-26T06:24:55.955Z,22.13
2019-06-26T06:26:22.195Z,20.17
2019-06-26T06:27:47.719Z,22.53
2019-06-26T06:29:13.812Z,20.00
2019-06-26T06:30:39.410Z,30.83
2019-06-26T06:32:05.639Z,23.57
2019-06-26T06:33:31.135Z,27.13
2019-06-26T06:34:57.219Z,38.47
2019-06-26T06:36:22.745Z,28.93
2019-06-26T06:37:48.956Z,31.43
2019-06-26T06:39:14.450Z,25.50
2019-06-26T06:40:40.619Z,36.30
2019-06-26T06:42:06.241Z,25.43
2019-06-26T06:43:32.386Z,28.13
2019-06-26T06:44:58.032Z,32.20
2019-06-26T06:46:24.327Z,33.10
2019-06-26T06:47:50.066Z,24.03
2019-06-26T06:49:16.153Z,26.43
2019-06-26T06:50:41.683Z,24.33
2019-06-26T06:52:07.948Z,26.30
2019-06-26T06:53:33.587Z,20.93
2019-06-26T06:54:59.706Z,25.33
2019-06-26T06:56:25.234Z,22.83
2019-06-26T06:57:51.394Z,19.30
2019-06-26T06:59:16.974Z,25.73
2019-06-26T07:00:43.229Z,22.77
2019-06-26T07:02:08.936Z,27.50
2019-06-26T07:03:35.145Z,21.33
2019-06-26T07:05:00.773Z,33.20
2019-06-26T07:06:26.943Z,28.10
2019-06-26T07:07:52.531Z,27.63
2019-06-26T07:09:18.693Z,19.33
2019-06-26T07:10:44.845Z,21.40
2019-06-26T07:12:11.155Z,27.97
2019-06-26T07:13:36.807Z,30.77
2019-06-26T07:15:03.061Z,28.80
2019-06-26T07:16:28.631Z,31.60
2019-06-26T07:17:55.335Z,24.80
2019-06-26T07:19:20.892Z,27.83
2019-06-26T07:20:47.120Z,31.07
2019-06-26T07:22:12.637Z,26.93
2019-06-26T07:23:38.843Z,22.27
2019-06-26T07:25:04.493Z,28.50
2019-06-26T07:26:30.731Z,25.50
2019-06-26T07:27:56.334Z,24.97
2019-06-26T07:29:24.209Z,17.73
2019-06-26T07:30:49.778Z,24.50
2019-06-26T07:32:15.812Z,29.37
2019-06-26T07:33:41.575Z,27.87
2019-06-26T07:35:07.914Z,26.77
2019-06-26T07:36:33.495Z,32.57
2019-06-26T07:38:00.296Z,23.50
2019-06-26T07:39:26.220Z,33.13
2019-06-26T07:40:52.763Z,34.87
2019-06-26T07:42:18.436Z,29.83
2019-06-26T07:43:44.611Z,25.40
2019-06-26T07:45:10.427Z,33.43
2019-06-26T07:46:36.513Z,33.10
2019-06-26T07:48:02.053Z,31.23
2019-06-26T07:49:28.409Z,30.67
2019-06-26T07:50:54.335Z,22.17
2019-06-26T07:52:20.730Z,29.87
2019-06-26T07:53:46.471Z,44.60
2019-06-26T07:55:13.118Z,41.93
2019-06-26T07:56:38.618Z,43.50
2019-06-26T07:58:04.773Z,30.27
2019-06-26T07:59:30.296Z,24.13
2019-06-26T08:00:56.488Z,27.77
2019-06-26T08:02:22.058Z,20.03
2019-06-26T08:03:48.179Z,33.13
2019-06-26T08:05:13.936Z,29.03
2019-06-26T08:06:40.056Z,29.87
2019-06-26T08:08:05.663Z,21.13
2019-06-26T08:09:31.829Z,24.40
2019-06-26T08:10:57.509Z,28.77
2019-06-26T08:12:25.542Z,33.10
2019-06-26T08:13:51.120Z,27.40
2019-06-26T08:15:19.061Z,28.20
2019-06-26T08:16:44.535Z,29.00
2019-06-26T08:18:10.667Z,36.53
2019-06-26T08:19:36.227Z,38.13
2019-06-26T08:21:12.116Z,35.30
2019-06-26T08:22:29.749Z,24.00
2019-06-26T08:23:59.284Z,29.47
2019-06-26T08:25:34.910Z,28.10
2019-06-26T08:27:03.429Z,26.43
2019-06-26T08:28:28.902Z,16.37
2019-06-26T08:29:55.291Z,24.03
2019-06-26T08:31:21.332Z,30.50
2019-06-26T08:32:47.531Z,31.13
2019-06-26T08:34:13.114Z,27.80
2019-06-26T08:35:39.309Z,26.33
2019-06-26T08:37:05.032Z,28.43
2019-06-26T08:38:31.504Z,32.10
2019-06-26T08:39:57.034Z,26.00
2019-06-26T08:41:23.684Z,21.63
2019-06-26T08:42:49.508Z,26.83
2019-06-26T08:44:15.887Z,29.37
2019-06-26T08:45:41.804Z,34.67
2019-06-26T08:47:08.250Z,39.83
2019-06-26T08:48:39.394Z,38.93
2019-06-26T08:50:02.175Z,27.13
2019-06-26T08:51:28.337Z,27.13
2019-06-26T08:52:54.743Z,28.33
2019-06-26T08:54:20.572Z,36.43
2019-06-26T08:55:46.765Z,34.53
2019-06-26T08:57:12.764Z,29.73
2019-06-26T08:58:39.199Z,36.93
2019-06-26T09:00:05.495Z,33.23
2019-06-26T09:01:32.011Z,24.13
2019-06-26T09:02:57.507Z,22.13
2019-06-26T09:04:23.670Z,37.33
2019-06-26T09:05:49.565Z,24.50
2019-06-26T09:07:15.768Z,31.30
2019-06-26T09:08:41.371Z,29.33
2019-06-26T09:10:07.825Z,33.87
2019-06-26T09:11:33.387Z,30.77
2019-06-26T09:12:59.859Z,32.85
2019-06-26T09:14:25.691Z,32.20
2019-06-26T09:15:51.941Z,42.37
2019-06-26T09:17:18.347Z,24.03
2019-06-26T09:18:44.427Z,35.83
2019-06-26T09:20:10.579Z,21.73
2019-06-26T09:21:36.748Z,26.83
2019-06-26T09:23:02.679Z,33.37
2019-06-26T09:24:28.964Z,22.07
2019-06-26T09:25:54.669Z,29.07
2019-06-26T09:27:20.889Z,32.27
2019-06-26T09:28:46.732Z,28.90
2019-06-26T09:30:13.227Z,23.07
2019-06-26T09:31:38.808Z,35.37
2019-06-26T09:33:05.085Z,33.10
2019-06-26T09:34:30.587Z,36.20
2019-06-26T09:35:56.927Z,22.70
2019-06-26T09:37:22.543Z,30.87
2019-06-26T09:38:48.679Z,31.60
2019-06-26T09:40:14.524Z,30.70
2019-06-26T09:41:40.673Z,24.77
2019-06-26T09:43:06.280Z,26.40
2019-06-26T09:44:32.369Z,32.97
2019-06-26T09:45:58.356Z,27.03
2019-06-26T09:47:24.624Z,31.90
2019-06-26T09:48:53.258Z,37.50
2019-06-26T09:50:18.476Z,30.30
2019-06-26T09:51:44.151Z,30.13
2019-06-26T09:53:10.228Z,29.07
2019-06-26T09:54:35.716Z,36.20
2019-06-26T09:56:01.825Z,28.77
2019-06-26T09:57:27.583Z,35.77
2019-06-26T09:58:53.855Z,34.67
2019-06-26T10:00:20.541Z,26.17
2019-06-26T10:01:46.747Z,41.23
2019-06-26T10:03:12.341Z,29.43
2019-06-26T10:04:38.552Z,28.33
2019-06-26T10:06:04.193Z,28.53
2019-06-26T10:07:30.322Z,40.97
2019-06-26T10:08:55.890Z,26.13
2019-06-26T10:10:22.186Z,27.73
2019-06-26T10:11:47.752Z,36.27
2019-06-26T10:13:13.819Z,36.77
2019-06-26T10:14:47.199Z,28.23
2019-06-26T10:16:07.287Z,22.87
2019-06-26T10:17:32.960Z,38.87
2019-06-26T10:19:09.453Z,28.30
2019-06-26T10:20:26.324Z,25.83
2019-06-26T10:21:52.460Z,33.73
2019-06-26T10:23:18.042Z,38.73
2019-06-26T10:24:44.212Z,27.37
2019-06-26T11:24:37.159Z,42.57
2019-06-26T11:26:04.683Z,43.87
2019-06-26T11:27:30.309Z,38.77
2019-06-26T11:28:56.442Z,27.47
2019-06-26T11:30:24.456Z,34.53
2019-06-26T11:31:50.633Z,37.30
2019-06-26T11:33:16.149Z,47.03
2019-06-26T11:34:42.281Z,36.63
2019-06-26T11:36:07.728Z,42.33
2019-06-26T11:37:33.859Z,34.60
2019-06-26T11:38:59.414Z,38.13
2019-06-26T11:40:25.544Z,35.43
2019-06-26T11:41:51.042Z,36.97
2019-06-26T11:43:17.159Z,39.17
2019-06-26T11:44:42.640Z,38.47
2019-06-26T11:46:08.728Z,38.53
2019-06-26T11:47:34.312Z,34.37
2019-06-26T11:49:00.547Z,31.90
2019-06-26T11:50:26.192Z,40.53
2019-06-26T11:51:52.309Z,31.57
2019-06-26T11:53:17.872Z,41.63
2019-06-26T11:54:44.142Z,43.30
2019-06-26T11:56:10.331Z,38.17
2019-06-26T11:57:36.587Z,33.77
2019-06-26T11:59:02.315Z,29.80
2019-06-26T12:00:28.824Z,41.30
2019-06-26T12:01:54.377Z,33.83
2019-06-26T12:03:20.867Z,38.73
2019-06-26T12:04:46.606Z,30.77
2019-06-26T12:06:18.916Z,32.47
2019-06-26T12:07:40.079Z,37.67
2019-06-26T12:09:09.330Z,35.10
2019-06-26T12:10:35.002Z,34.07
2019-06-26T12:12:01.225Z,34.33
2019-06-26T12:13:26.761Z,32.57
2019-06-26T12:14:53.026Z,37.43
2019-06-26T12:16:18.550Z,38.33
2019-06-26T12:17:44.748Z,32.87
2019-06-26T12:19:10.376Z,35.60
2019-06-26T12:20:36.676Z,30.23
2019-06-26T12:22:02.276Z,33.77
2019-06-26T12:23:28.431Z,32.90
2019-06-26T12:24:53.993Z,34.83
2019-06-26T12:26:20.224Z,39.13
2019-06-26T12:27:45.952Z,27.33
2019-06-26T12:29:12.056Z,29.93
2019-06-26T12:30:37.714Z,40.83
2019-06-26T12:32:04.137Z,33.53
2019-06-26T12:33:29.665Z,29.90
2019-06-26T12:34:55.878Z,31.80
2019-06-26T12:36:21.418Z,32.57
2019-06-26T12:37:47.633Z,38.80
2019-06-26T12:39:13.199Z,37.10
2019-06-26T12:40:39.727Z,39.90
2019-06-26T12:42:05.631Z,33.50
2019-06-26T12:43:31.843Z,32.50
2019-06-26T12:44:57.389Z,33.40
2019-06-26T12:46:23.765Z,33.50
2019-06-26T12:47:49.438Z,38.10
2019-06-26T12:49:15.527Z,31.23
2019-06-26T12:50:41.173Z,31.47
2019-06-26T12:52:07.473Z,33.73
2019-06-26T12:53:34.633Z,29.17
2019-06-26T12:55:00.794Z,30.57
2019-06-26T12:56:26.356Z,32.80
2019-06-26T12:57:52.513Z,42.70
2019-06-26T12:59:18.225Z,29.43
2019-06-26T13:00:44.482Z,36.27
2019-06-26T13:02:10.278Z,34.00
2019-06-26T13:03:36.430Z,40.73
2019-06-26T13:05:04.976Z,33.07
2019-06-26T13:06:31.033Z,34.30
2019-06-26T13:07:56.549Z,32.40
2019-06-26T13:09:22.893Z,32.43
2019-06-26T13:10:50.752Z,33.90
2019-06-26T13:12:17.005Z,35.93
2019-06-26T13:13:42.884Z,35.40
2019-06-26T13:15:09.842Z,43.70
2019-06-26T13:16:35.473Z,33.73
2019-06-26T13:18:01.994Z,35.90
2019-06-26T13:19:27.523Z,35.70
2019-06-26T13:20:53.947Z,42.80
2019-06-26T13:22:19.571Z,29.63
2019-06-26T13:23:45.724Z,33.70
2019-06-26T13:25:15.671Z,40.27
2019-06-26T13:26:39.900Z,41.63
2019-06-26T13:28:05.657Z,46.40
2019-06-26T13:29:31.757Z,38.07
2019-06-26T13:30:57.276Z,32.53
2019-06-26T13:32:23.363Z,30.20
2019-06-26T13:33:48.891Z,26.63
2019-06-26T13:35:15.538Z,30.33
2019-06-26T13:36:41.347Z,31.43
2019-06-26T13:38:07.654Z,33.40
2019-06-26T13:39:33.414Z,32.57
2019-06-26T13:40:59.536Z,39.63
2019-06-26T13:42:25.083Z,30.93
2019-06-26T13:43:51.198Z,32.33
2019-06-26T13:45:17.323Z,25.70
2019-06-26T13:46:43.527Z,29.73
2019-06-26T13:48:09.193Z,35.67
2019-06-26T13:49:35.546Z,34.33
2019-06-26T13:51:09.151Z,37.50
2019-06-26T13:52:29.001Z,40.67
2019-06-26T13:53:54.511Z,43.10
2019-06-26T13:55:20.879Z,31.50
2019-06-26T13:56:46.403Z,35.83
2019-06-26T13:58:12.621Z,46.60
2019-06-26T13:59:38.357Z,41.23
2019-06-26T14:01:04.435Z,35.87
2019-06-26T14:02:29.960Z,36.20
2019-06-26T14:03:56.079Z,36.37
2019-06-26T14:05:21.911Z,33.03
2019-06-26T14:06:48.246Z,42.00
2019-06-26T14:08:13.784Z,28.30
2019-06-26T14:09:39.913Z,46.60
2019-06-26T14:11:07.581Z,31.10
2019-06-26T14:12:33.399Z,42.37
2019-06-26T14:13:58.975Z,53.40
2019-06-26T14:15:25.291Z,47.07
2019-06-26T14:16:50.857Z,32.53
2019-06-26T14:18:16.993Z,36.77
2019-06-26T14:19:53.072Z,40.67
2019-06-26T14:21:25.770Z,40.67
2019-06-26T14:22:46.491Z,37.03
2019-06-26T14:24:12.776Z,42.30
2019-06-26T14:25:38.681Z,38.33
2019-06-26T14:27:05.055Z,38.07
2019-06-26T14:28:30.686Z,45.57
2019-06-26T14:29:56.777Z,34.37
2019-06-26T14:31:22.320Z,41.07
2019-06-26T14:32:48.568Z,32.73
2019-06-26T14:34:14.063Z,43.77
2019-06-26T14:35:40.279Z,38.10
2019-06-26T14:37:05.923Z,41.57
2019-06-26T14:38:32.155Z,36.00
2019-06-26T14:39:57.700Z,33.10
2019-06-26T14:41:24.031Z,36.00
2019-06-26T14:42:49.640Z,34.70
2019-06-26T14:44:15.879Z,41.50
2019-06-26T14:45:41.642Z,42.13
2019-06-26T14:47:30.685Z,39.10
2019-06-26T14:48:56.784Z,40.70
2019-06-26T14:50:23.123Z,37.77
2019-06-26T14:51:49.260Z,40.23
2019-06-26T14:53:14.837Z,34.67
2019-06-26T14:54:41.228Z,41.53
2019-06-26T14:56:06.899Z,35.50
2019-06-26T14:57:33.046Z,39.40
2019-06-26T14:58:58.558Z,39.80
2019-06-26T15:00:25.083Z,39.63
2019-06-26T15:01:50.669Z,35.00
2019-06-26T15:03:16.814Z,38.40
2019-06-26T15:04:46.008Z,35.90
2019-06-26T15:06:16.260Z,36.00
2019-06-26T15:07:37.391Z,40.07
2019-06-26T15:09:03.448Z,37.43
2019-06-26T15:10:28.973Z,45.90
2019-06-26T15:11:55.138Z,40.13
2019-06-26T15:13:20.663Z,38.87
2019-06-26T15:14:46.781Z,35.20
2019-06-26T15:16:12.275Z,30.40
2019-06-26T15:17:38.513Z,35.00
2019-06-26T15:19:04.005Z,40.27
2019-06-26T15:20:30.197Z,38.93
2019-06-26T15:21:58.794Z,32.43
2019-06-26T15:23:23.611Z,36.27
2019-06-26T15:24:49.440Z,49.67
2019-06-26T15:26:15.588Z,40.73
2019-06-26T15:27:41.231Z,41.40
2019-06-26T15:29:07.355Z,37.17
2019-06-26T15:30:32.817Z,42.97
2019-06-26T15:31:58.928Z,26.03
2019-06-26T15:33:24.520Z,36.13
2019-06-26T15:34:50.687Z,35.10
2019-06-26T15:36:16.189Z,39.30
2019-06-26T15:37:44.774Z,39.63
2019-06-26T15:39:09.726Z,43.30
2019-06-26T15:40:35.932Z,43.13
2019-06-26T15:42:01.441Z,39.73
2019-06-26T15:43:27.544Z,37.10
2019-06-26T15:44:53.231Z,40.33
2019-06-26T15:46:19.316Z,42.20
2019-06-26T15:47:44.863Z,35.13
2019-06-26T15:49:10.968Z,51.60
2019-06-26T15:50:36.789Z,40.60
2019-06-26T15:52:14.531Z,53.20
2019-06-26T15:53:30.148Z,40.17
2019-06-26T15:54:56.259Z,42.33
2019-06-26T15:56:21.892Z,39.80
2019-06-26T15:57:47.979Z,44.30
2019-06-26T15:59:13.516Z,48.17
2019-06-26T16:00:39.757Z,44.20
2019-06-26T16:02:05.469Z,47.47
2019-06-26T16:03:31.621Z,58.17
2019-06-26T16:04:57.154Z,44.13
2019-06-26T16:06:23.369Z,49.30
2019-06-26T16:07:48.973Z,54.87
2019-06-26T16:09:15.112Z,48.70
2019-06-26T16:10:40.631Z,48.47
2019-06-26T16:12:06.908Z,53.33
2019-06-26T16:13:32.424Z,49.00
2019-06-26T16:14:58.545Z,46.90
2019-06-26T16:16:24.868Z,56.03
2019-06-26T16:18:04.762Z,76.33
2019-06-26T16:19:30.315Z,62.90
2019-06-26T16:20:56.543Z,66.53
2019-06-26T16:22:31.607Z,35.87
2019-06-26T16:23:49.987Z,50.90
2019-06-26T16:25:16.019Z,111.90
2019-06-26T16:26:42.187Z,59.43
2019-06-26T16:28:07.924Z,61.67
2019-06-26T16:29:34.123Z,89.53
2019-06-26T16:30:59.860Z,85.30
2019-06-26T16:32:26.064Z,66.70
2019-06-26T16:33:51.599Z,97.23
2019-06-26T16:35:18.112Z,76.97
2019-06-26T16:36:43.750Z,71.50
2019-06-26T16:38:09.859Z,63.83
2019-06-26T16:39:35.517Z,56.37
2019-06-26T16:41:01.580Z,48.17
2019-06-26T16:42:27.067Z,51.50
2019-06-26T16:43:53.185Z,38.90
2019-06-26T16:45:19.033Z,56.70
2019-06-26T16:46:45.166Z,47.40
2019-06-26T16:48:10.756Z,49.40
2019-06-26T16:49:36.868Z,41.37
2019-06-26T16:51:02.401Z,37.50
2019-06-26T16:52:28.556Z,47.87
2019-06-26T16:53:54.067Z,53.73
2019-06-26T16:55:20.178Z,54.10
2019-06-26T16:56:45.855Z,35.57
2019-06-26T16:58:12.060Z,35.50
2019-06-26T16:59:37.579Z,45.23
2019-06-26T17:01:03.824Z,46.43
2019-06-26T17:02:29.350Z,52.87
2019-06-26T17:03:55.424Z,41.17
2019-06-26T17:05:21.072Z,31.50
2019-06-26T17:06:47.220Z,45.70
2019-06-26T17:08:12.851Z,53.77
2019-06-26T17:09:39.146Z,48.87
2019-06-26T17:11:04.775Z,42.77
2019-06-26T17:12:30.987Z,44.07
2019-06-26T17:13:56.515Z,56.23
2019-06-26T17:15:22.841Z,40.50
2019-06-26T17:16:48.378Z,34.17
2019-06-26T17:18:14.456Z,55.67
2019-06-26T17:19:40.073Z,44.13
2019-06-26T17:21:06.421Z,37.10
2019-06-26T17:22:32.034Z,39.37
2019-06-26T17:23:58.180Z,40.47
2019-06-26T17:25:23.936Z,34.50
2019-06-26T17:26:50.053Z,50.57
2019-06-26T17:28:15.580Z,48.77
2019-06-26T17:29:41.647Z,42.13
2019-06-26T17:31:07.233Z,40.10
2019-06-26T17:32:33.283Z,33.43
2019-06-26T17:33:58.772Z,42.33
2019-06-26T17:35:24.876Z,42.60
2019-06-26T17:36:50.404Z,41.37
2019-06-26T17:38:16.597Z,33.77
2019-06-26T17:39:42.080Z,43.50
2019-06-26T17:41:08.328Z,42.97
2019-06-26T17:42:33.864Z,43.77
2019-06-26T17:43:59.988Z,38.70
2019-06-26T17:45:25.656Z,38.13
2019-06-26T17:46:51.840Z,40.73
2019-06-26T17:48:17.371Z,36.60
2019-06-26T17:49:43.505Z,44.40
2019-06-26T17:51:09.032Z,42.63
2019-06-26T17:52:38.262Z,37.10
2019-06-26T17:54:02.528Z,38.43
2019-06-26T17:55:28.670Z,38.17
2019-06-26T17:56:54.242Z,41.93
2019-06-26T17:58:20.448Z,47.73
2019-06-26T19:44:14.523Z,57.63
2019-06-26T19:45:40.698Z,50.40
2019-06-26T19:47:06.340Z,38.10
2019-06-26T19:48:32.485Z,48.00
2019-06-26T19:49:58.142Z,49.13
2019-06-26T19:51:27.636Z,45.40
2019-06-26T19:52:53.128Z,45.40
2019-06-26T19:54:27.529Z,42.97
2019-06-26T19:55:46.339Z,39.37
2019-06-26T19:57:12.462Z,40.00
2019-06-26T19:58:38.024Z,48.83
2019-06-26T20:00:04.202Z,49.80
2019-06-26T20:01:29.827Z,34.00
2019-06-26T20:02:56.000Z,51.03
2019-06-26T20:04:21.629Z,48.97
2019-06-26T20:05:48.762Z,48.40
2019-06-26T20:07:14.379Z,40.40
2019-06-26T20:08:53.101Z,37.17
2019-06-26T20:10:08.616Z,53.80
2019-06-26T20:11:34.703Z,44.83
2019-06-26T20:13:00.394Z,51.17
2019-06-26T20:14:26.475Z,47.27
2019-06-26T20:15:52.096Z,51.90
2019-06-26T20:17:18.258Z,44.97
2019-06-26T20:18:43.830Z,53.07
2019-06-26T20:20:10.651Z,48.73
2019-06-26T20:21:36.172Z,46.10
2019-06-26T20:23:02.514Z,37.87
2019-06-26T20:24:42.811Z,45.13
2019-06-26T20:25:55.907Z,53.83
2019-06-26T20:27:21.455Z,44.10
2019-06-26T20:28:47.563Z,58.03
2019-06-26T20:30:13.961Z,47.93
2019-06-26T20:31:40.032Z,49.37
2019-06-26T20:33:05.572Z,39.40
2019-06-26T20:34:31.699Z,41.83
2019-06-26T20:35:57.296Z,45.70
2019-06-26T20:37:23.511Z,45.00
2019-06-26T20:38:49.059Z,45.40
2019-06-26T20:40:15.457Z,38.63
2019-06-26T20:41:41.169Z,42.83
2019-06-26T20:43:07.416Z,41.67
2019-06-26T20:44:33.026Z,42.93
2019-06-26T20:45:59.252Z,57.40
2019-06-26T20:47:24.960Z,41.37
2019-06-26T20:48:51.054Z,43.03
2019-06-26T20:50:17.306Z,43.03
2019-06-26T20:51:43.515Z,44.77
2019-06-26T20:53:09.056Z,52.17
2019-06-26T20:54:35.194Z,50.43
2019-06-26T20:56:00.688Z,51.93
2019-06-26T20:57:26.848Z,45.23
2019-06-26T20:58:52.992Z,43.40
2019-06-26T21:00:22.440Z,48.03
2019-06-26T21:01:46.511Z,53.50
2019-06-26T21:03:12.608Z,50.00
2019-06-26T21:04:38.164Z,49.87
2019-06-26T21:06:04.419Z,52.77
2019-06-26T21:07:29.984Z,36.43
2019-06-26T21:08:56.168Z,42.00
2019-06-26T21:10:21.849Z,48.30
2019-06-26T21:11:47.964Z,46.30
2019-06-26T21:13:13.498Z,47.93
2019-06-26T21:14:39.842Z,49.57
2019-06-26T21:16:05.467Z,43.60
2019-06-26T21:17:31.559Z,40.23
2019-06-26T21:18:57.619Z,56.03
2019-06-26T21:20:23.720Z,39.93
2019-06-26T21:21:49.355Z,40.57
2019-06-26T21:23:18.879Z,58.43
2019-06-26T21:24:42.589Z,41.10
2019-06-26T21:26:08.698Z,36.03
2019-06-26T21:27:34.349Z,48.80
2019-06-26T21:29:00.974Z,40.13
2019-06-26T21:30:26.689Z,45.27
2019-06-26T21:31:52.809Z,43.57
2019-06-26T21:33:18.443Z,38.27
2019-06-26T21:34:44.510Z,62.10
2019-06-26T21:36:10.063Z,55.30
2019-06-26T21:37:36.235Z,60.27
2019-06-26T21:39:01.766Z,44.17
2019-06-26T21:40:27.901Z,46.23
2019-06-26T21:41:53.438Z,58.80
2019-06-26T21:43:19.611Z,62.40
2019-06-26T21:44:45.179Z,50.30
2019-06-26T21:46:11.353Z,45.53
2019-06-26T21:47:36.888Z,40.47
2019-06-26T21:49:03.105Z,41.17
2019-06-26T21:50:29.220Z,50.87
2019-06-26T21:51:55.431Z,49.53
2019-06-26T21:53:20.917Z,45.90
2019-06-26T21:54:46.985Z,44.90
2019-06-26T21:56:12.590Z,50.10
2019-06-26T21:57:38.696Z,47.53
2019-06-26T21:59:04.204Z,42.50
2019-06-26T22:00:32.577Z,42.30
2019-06-26T22:01:58.346Z,42.43
2019-06-26T22:03:24.540Z,48.83
2019-06-26T22:04:50.130Z,51.20
2019-06-26T22:06:16.480Z,58.87
2019-06-26T22:07:42.164Z,55.33
2019-06-26T22:09:09.184Z,45.67
2019-06-26T22:10:34.707Z,54.03
2019-06-26T22:12:01.006Z,45.87
2019-06-26T22:13:26.635Z,50.67
2019-06-26T22:14:52.728Z,53.77
2019-06-26T22:16:18.297Z,64.70
2019-06-26T22:17:44.515Z,59.90
2019-06-26T22:19:10.044Z,52.73
2019-06-26T22:20:36.244Z,69.17
2019-06-26T22:22:01.876Z,74.10
2019-06-26T22:23:28.103Z,59.10
2019-06-26T22:24:53.731Z,69.43
2019-06-26T22:26:19.936Z,66.20
2019-06-26T22:27:45.479Z,71.97
2019-06-26T22:29:11.730Z,72.80
2019-06-26T22:30:37.432Z,75.83
2019-06-26T22:32:03.642Z,68.60
2019-06-26T22:33:29.279Z,71.10
2019-06-26T22:34:55.451Z,62.47
2019-06-26T22:36:21.005Z,70.30
2019-06-26T22:37:47.272Z,76.13
2019-06-26T22:39:13.000Z,77.17
2019-06-26T22:40:39.117Z,70.50
2019-06-26T22:42:04.677Z,69.63
2019-06-26T22:43:30.855Z,61.83
2019-06-26T22:44:56.381Z,60.77
2019-06-26T22:46:22.517Z,71.97
2019-06-26T22:47:48.135Z,63.57
2019-06-26T22:49:14.292Z,59.93
2019-06-26T22:50:39.834Z,64.30
2019-06-26T22:52:06.023Z,56.13